Vindmåler ude af drift - anemometer is down due to maintenance


Webcam more information My webcam


Lyn radar more information blitzortung!


Regn radar more information rain snow radar


Du finder også vores vejrinformationer på:

UK Metoffice

European Weather Network

WeatherCloud

Weather Underground

AWEKAS

Citizen Weather Observer Program (CWOP)



Ingen særlig opmærksomhed af vejret er påkrævet.    Der er ingen vejr varsler

Lokal METAR Rapport

   
EBAW - Antwerp
Opdateret: 18-01-2019 12:50
Let tåge, Delvis skyet  
Let tåge, Delvis skyet  
   Vind: SØ 2.6 m/s
Vind: SØ 2.6 m/s
Temperatur: 2°C
Kuldeindeks: -1°C
Dugpunkt: 1°C
Luftfugtighed: 93%
Barometer: 1020 hPa
Skyet: Partly Cloudy
Sigtbarhed: 5 km
Sky detaljer: Let Skyet 400 ft,
Delvis skyet 500 ft
EBAW 181150Z 14005KT 5000 BR FEW004 SCT005 02/01 Q1020 TEMPO 2000 BR BKN003
EBLG - Liège
Opdateret: 18-01-2019 12:50
Let Skyet  
Let Skyet  
   Vind: SSV 2.1 m/s
Vind: SSV 2.1 m/s
Temperatur: 2°C
Kuldeindeks: 0°C
Dugpunkt: 0°C
Luftfugtighed: 87%
Barometer: 1020 hPa
Skyet: Few Clouds
Sigtbarhed: mere end 10 km
Sky detaljer: Let Skyet 1200 ft
EBLG 181150Z 21004KT 170V230 9999 FEW012 02/M00 Q1020 NOSIG
EBCV - Mons/Bergen
Opdateret: 18-01-2019 12:55
Let Skyet  
Let Skyet  
   Vind: SSØ 2.1 m/s
Vind: SSØ 2.1 m/s
Temperatur: 2°C
Kuldeindeks: 0°C
Dugpunkt: 1°C
Luftfugtighed: 93%
Barometer: 1020 hPa
Skyet: Few Clouds
Sigtbarhed: 6 km
Sky detaljer: Let Skyet 14000 ft
EBCV 181155Z AUTO 15004KT 6000 FEW140/// 02/01 Q1020 WHT
EHBK - Maastricht
Opdateret: 18-01-2019 12:55
Let tåge, Overskyet  
Let tåge, Overskyet  
   Vind: SSV 1.5 m/s
Vind: SSV 1.5 m/s
Temperatur: 1°C
Kuldeindeks: -1°C
Dugpunkt: 0°C
Luftfugtighed: 93%
Barometer: 1020 hPa
Skyet: Overcast
Sigtbarhed: 4 km
Sky detaljer: Let Skyet 400 ft,
Overskyet 500 ft
EHBK 181155Z AUTO 20003KT 160V240 4000 BR FEW004 OVC005 01/00 Q1020 BECMG 5000
ELLX - Luxemburg
Opdateret: 18-01-2019 12:50
Delvis skyet  
Delvis skyet  
   Vind: ØSØ 2.1 m/s
Vind: ØSØ 2.1 m/s
Temperatur: 0°C
Kuldeindeks: -3°C
Dugpunkt: -2°C
Luftfugtighed: 87%
Barometer: 1019 hPa
Skyet: Partly Cloudy
Sigtbarhed: mere end 10 km
Sky detaljer: Delvis skyet 1500 ft
ELLX 181150Z 12004KT 090V160 9999 SCT015 00/M02 Q1019 NOSIG
EBOS - Oostende
Opdateret: 18-01-2019 12:50
Let Skyet  
Let Skyet  
   Vind: SSV 3.6 m/s
Vind: SSV 3.6 m/s
Temperatur: 4°C
Kuldeindeks: 1°C
Dugpunkt: 2°C
Luftfugtighed: 87%
Barometer: 1020 hPa
Skyet: Few Clouds
Sigtbarhed: mere end 10 km
Sky detaljer: Let Skyet 1300 ft
EBOS 181150Z 20007KT 9999 FEW013 04/02 Q1020 NOSIG

Script udviklet af  Saratoga-weather.org Tilpasset til denne template af  Weerstation Leuven

Udstyr som vi anvender:

Vejrstation
Davis VP2

Vejrprogram
Meteobridge

Vejrserver
Meteobridge Pro

Hjemmeside host
Unoeuro

Davis VP2

Meteobridge

Meteobridge Pro

Unoeuro